Time;durP1;ratioP1;P1;durP2;ratioP2;P2;SDS_P1;SDS_P2;PMS_P1;PMS_P2;Temp;Humidity;BMP_temperature;BMP_pressure;BME280_temperature;BME280_humidity;BME280_pressure;Samples;Min_cycle;Max_cycle;Signal;HPM_P1;HPM_P2
2022/01/17 00:02:28;;;;;;;62.00;42.63;;;;;;;5.46;100.00;103001.00;5234728;28;20060;-71
2022/01/17 00:04:59;;;;;;;69.67;40.40;;;;;;;5.47;100.00;102997.53;5235283;28;20029;-71
2022/01/17 00:07:31;;;;;;;66.73;42.40;;;;;;;5.48;100.00;103011.41;5236933;28;20045;-71
2022/01/17 00:10:05;;;;;;;71.67;41.43;;;;;;;5.47;100.00;103015.72;5219132;28;20013;-72
2022/01/17 00:12:43;;;;;;;68.43;41.30;;;;;;;5.50;100.00;103026.09;5235035;28;20029;-72
2022/01/17 00:15:21;;;;;;;67.17;41.20;;;;;;;5.49;100.00;103016.59;5235466;28;21027;-72
2022/01/17 00:18:20;;;;;;;63.40;38.63;;;;;;;5.47;100.00;103028.72;5235467;28;20096;-71
2022/01/17 00:20:46;;;;;;;68.40;39.67;;;;;;;5.51;100.00;103022.66;5236626;28;20435;-72
2022/01/17 00:23:17;;;;;;;59.77;38.17;;;;;;;5.52;100.00;103031.31;5236359;28;20025;-72
2022/01/17 00:25:48;;;;;;;55.63;35.63;;;;;;;5.56;100.00;103036.50;5236356;28;20036;-72
2022/01/17 00:28:20;;;;;;;60.47;36.70;;;;;;;5.49;100.00;103039.13;5217081;28;20044;-72
2022/01/17 00:30:51;;;;;;;55.57;37.20;;;;;;;5.52;100.00;103032.19;5220845;28;20033;-71
2022/01/17 00:33:22;;;;;;;63.53;38.33;;;;;;;5.47;100.00;103036.53;5236865;28;20472;-71
2022/01/17 00:35:54;;;;;;;58.90;37.53;;;;;;;5.54;100.00;103027.84;5236188;28;20029;-72
2022/01/17 00:38:25;;;;;;;57.47;36.57;;;;;;;5.40;100.00;102999.28;5236108;28;20075;-71
2022/01/17 00:40:56;;;;;;;56.43;34.80;;;;;;;5.54;100.00;103025.25;5235919;28;20030;-72
2022/01/17 00:43:28;;;;;;;52.40;35.43;;;;;;;5.53;100.00;103017.44;5218249;28;20048;-71
2022/01/17 00:45:59;;;;;;;56.43;34.13;;;;;;;5.44;100.00;103013.16;5218417;28;20080;-71
2022/01/17 00:48:30;;;;;;;55.43;34.00;;;;;;;5.51;100.00;103022.66;5234744;28;20029;-71
2022/01/17 00:51:02;;;;;;;61.40;36.93;;;;;;;5.54;100.00;103032.16;5236133;28;20032;-71
2022/01/17 00:53:36;;;;;;;49.23;34.00;;;;;;;5.47;100.00;103027.84;5216206;28;20074;-71
2022/01/17 00:56:08;;;;;;;60.43;34.80;;;;;;;5.47;100.00;103035.66;5235883;28;20677;-71
2022/01/17 00:58:39;;;;;;;51.57;33.03;;;;;;;5.42;100.00;103031.34;5217512;28;20025;-72
2022/01/17 01:01:11;;;;;;;53.83;32.83;;;;;;;5.43;100.00;103034.78;5227749;28;20033;-72
2022/01/17 01:03:43;;;;;;;51.17;34.27;;;;;;;5.56;100.00;103041.72;5213955;28;20048;-71
2022/01/17 01:06:14;;;;;;;55.30;35.93;;;;;;;5.49;100.00;103036.50;5213976;28;20080;-71
2022/01/17 01:08:45;;;;;;;45.13;29.47;;;;;;;5.56;100.00;103030.44;5214335;28;20488;-71
2022/01/17 01:11:17;;;;;;;46.77;30.37;;;;;;;5.42;100.00;103046.94;5213953;28;20034;-70
2022/01/17 01:13:48;;;;;;;48.07;30.83;;;;;;;5.50;100.00;103057.31;5215165;28;20034;-71
2022/01/17 01:30:06;;;;;;;43.93;29.17;;;;;;;5.54;100.00;103046.03;5219023;28;20160;-70
2022/01/17 01:32:45;;;;;;;43.73;27.67;;;;;;;5.56;100.00;103036.50;5216271;28;20113;-70
2022/01/17 01:35:20;;;;;;;44.17;29.50;;;;;;;5.54;100.00;103027.84;5235013;28;20025;-70
2022/01/17 01:37:51;;;;;;;;;;;;;;;5.72;100.00;103036.44;5235730;28;20073;-70
2022/01/17 01:40:22;;;;;;;50.60;27.27;;;;;;;5.54;100.00;103040.84;5234380;28;19909;-71
2022/01/17 01:42:55;;;;;;;51.37;27.90;;;;;;;5.52;100.00;103028.69;5235170;28;20033;-70
2022/01/17 01:45:27;;;;;;;41.87;27.03;;;;;;;5.50;100.00;103026.09;5234587;28;20108;-70
2022/01/17 01:47:59;;;;;;;41.00;27.03;;;;;;;5.39;100.00;103046.94;5234256;28;20033;-71
2022/01/17 01:50:30;;;;;;;42.00;25.57;;;;;;;5.33;100.00;103054.75;5234313;28;20032;-71
2022/01/17 01:53:01;;;;;;;43.83;24.17;;;;;;;5.28;100.00;103066.88;5234925;28;20021;-71
2022/01/17 01:55:33;;;;;;;47.33;24.07;;;;;;;5.29;100.00;103048.69;5234117;28;20048;-71
2022/01/17 01:58:04;;;;;;;37.30;21.10;;;;;;;5.33;100.00;103067.72;5235096;28;20439;-70
2022/01/17 02:00:36;;;;;;;38.27;23.50;;;;;;;5.31;100.00;103052.16;5234346;28;20016;-71
2022/01/17 02:03:08;;;;;;;40.77;20.20;;;;;;;5.33;100.00;103053.03;5233806;28;20021;-70
2022/01/17 02:05:40;;;;;;;38.27;19.87;;;;;;;5.25;100.00;103048.69;5233600;28;20894;-70
2022/01/17 02:08:13;;;;;;;29.20;19.67;;;;;;;5.23;100.00;103056.50;5234095;28;20124;-70
2022/01/17 02:10:45;;;;;;;32.73;20.50;;;;;;;5.17;100.00;103059.97;5234586;28;20112;-70
2022/01/17 02:13:16;;;;;;;35.90;21.30;;;;;;;5.16;100.00;103057.38;5233985;28;20065;-71
2022/01/17 02:15:49;;;;;;;38.20;20.57;;;;;;;5.03;100.00;103046.13;5234621;28;20076;-70
2022/01/17 02:18:29;;;;;;;33.57;20.60;;;;;;;5.06;100.00;103062.56;5233232;28;20423;-70
2022/01/17 02:23:43;;;;;;;34.77;18.63;;;;;;;5.04;100.00;103063.44;5234174;28;20396;-71
2022/01/17 02:26:16;;;;;;;43.23;20.07;;;;;;;5.13;100.00;103070.38;5233919;28;20025;-70
2022/01/17 02:28:50;;;;;;;31.30;19.30;;;;;;;5.02;100.00;103060.84;5216284;28;20051;-70
2022/01/17 02:31:23;;;;;;;30.50;19.45;;;;;;;4.96;100.00;103053.03;5234169;28;20032;-70
2022/01/17 02:33:55;;;;;;;31.83;18.80;;;;;;;4.97;100.00;103050.44;5215321;28;20080;-70
2022/01/17 02:36:26;;;;;;;32.17;18.33;;;;;;;4.90;100.00;103046.16;5233991;28;20033;-70
2022/01/17 02:38:58;;;;;;;29.13;18.63;;;;;;;4.90;100.00;103058.25;5234172;28;20072;-71
2022/01/17 02:41:32;;;;;;;31.10;19.30;;;;;;;4.77;100.00;103050.47;5233566;28;20036;-70
2022/01/17 02:44:03;;;;;;;37.70;20.37;;;;;;;4.70;100.00;103061.69;5232932;28;20030;-70
2022/01/17 02:46:35;;;;;;;33.80;19.90;;;;;;;4.76;100.00;103053.94;5232134;28;20036;-70
2022/01/17 02:49:08;;;;;;;37.70;20.70;;;;;;;4.76;100.00;103061.72;5215338;28;20037;-70
2022/01/17 02:51:40;;;;;;;31.17;18.97;;;;;;;4.81;100.00;103051.31;5233011;28;20113;-70
2022/01/17 02:54:11;;;;;;;36.70;19.70;;;;;;;4.58;100.00;103050.44;5233459;28;20561;-70
2022/01/17 02:56:43;;;;;;;35.90;21.90;;;;;;;4.64;100.00;103064.28;5216277;28;20037;-70
2022/01/17 02:59:14;;;;;;;38.47;19.60;;;;;;;4.57;100.00;103061.66;5233689;28;20017;-70
2022/01/17 03:01:45;;;;;;;35.27;20.80;;;;;;;4.63;100.00;103059.94;5233761;28;20037;-70
2022/01/17 03:04:17;;;;;;;35.50;21.00;;;;;;;4.57;100.00;103056.47;5232892;28;20503;-70
2022/01/17 03:06:48;;;;;;;37.50;20.70;;;;;;;4.58;100.00;103054.75;5233909;28;20033;-70
2022/01/17 03:09:20;;;;;;;33.33;19.47;;;;;;;4.59;100.00;103057.34;5233353;28;20034;-70
2022/01/17 03:11:51;;;;;;;38.50;20.83;;;;;;;4.46;100.00;103033.13;5234133;28;20476;-70
2022/01/17 03:14:23;;;;;;;34.60;20.07;;;;;;;4.60;100.00;103034.88;5233187;28;20045;-70
2022/01/17 03:16:55;;;;;;;38.83;21.43;;;;;;;4.59;100.00;103039.19;5217180;28;20029;-70
2022/01/17 03:19:27;;;;;;;35.90;21.50;;;;;;;4.54;100.00;103024.50;5237725;28;20026;-70
2022/01/17 03:21:58;;;;;;;35.77;21.13;;;;;;;4.62;100.00;103056.50;5219866;28;20545;-71
2022/01/17 03:24:29;;;;;;;38.23;22.03;;;;;;;4.53;100.00;103051.28;5219788;28;20053;-71
2022/01/17 03:27:00;;;;;;;38.13;21.47;;;;;;;4.48;100.00;103040.91;5219614;28;20029;-71
2022/01/17 03:29:32;;;;;;;37.00;21.97;;;;;;;4.43;100.00;103034.84;5237453;28;20034;-71
2022/01/17 03:32:03;;;;;;;39.43;23.87;;;;;;;4.39;100.00;103044.38;5236542;28;20025;-71
2022/01/17 03:34:36;;;;;;;44.57;23.07;;;;;;;4.41;100.00;103036.56;5237275;28;20092;-71
2022/01/17 03:37:08;;;;;;;41.93;22.07;;;;;;;4.32;100.00;103038.28;5237787;28;20021;-71
2022/01/17 03:39:39;;;;;;;36.93;22.77;;;;;;;4.42;100.00;103048.69;5236316;28;20036;-71
2022/01/17 03:42:10;;;;;;;36.53;21.90;;;;;;;4.27;100.00;103055.59;5237420;28;20029;-71
2022/01/17 03:44:42;;;;;;;44.80;23.40;;;;;;;4.42;100.00;103053.88;5237140;28;20396;-71
2022/01/17 03:47:13;;;;;;;34.87;21.37;;;;;;;4.36;100.00;103055.59;5236387;28;20025;-71
2022/01/17 03:49:44;;;;;;;35.03;21.60;;;;;;;4.41;100.00;103057.34;5236885;28;20052;-71
2022/01/17 03:52:15;;;;;;;35.70;20.60;;;;;;;4.37;100.00;103066.84;5237047;28;20033;-71
2022/01/17 03:54:47;;;;;;;42.47;24.67;;;;;;;4.34;100.00;103059.94;5236691;28;20054;-71
2022/01/17 03:57:18;;;;;;;37.07;19.97;;;;;;;4.38;100.00;103057.34;5236784;28;20042;-70
2022/01/17 03:59:49;;;;;;;36.77;19.73;;;;;;;4.43;100.00;103050.44;5236064;28;20021;-71
2022/01/17 04:02:20;;;;;;;31.83;18.43;;;;;;;4.42;100.00;103044.38;5234306;28;20033;-71
2022/01/17 04:04:52;;;;;;;29.93;17.73;;;;;;;4.43;100.00;103050.44;5236936;28;20033;-71
2022/01/17 04:07:23;;;;;;;33.30;16.57;;;;;;;4.32;100.00;103047.81;5236287;28;20101;-71
2022/01/17 04:09:55;;;;;;;30.60;16.60;;;;;;;4.26;100.00;103053.00;5237179;28;20392;-70
2022/01/17 04:12:26;;;;;;;28.27;15.50;;;;;;;4.10;100.00;103011.44;5236369;28;20091;-70
2022/01/17 04:14:57;;;;;;;33.90;17.33;;;;;;;4.36;100.00;103062.53;5236863;28;20036;-71
2022/01/17 04:17:29;;;;;;;29.00;15.30;;;;;;;4.37;100.00;103059.06;5217678;28;20304;-70
2022/01/17 04:20:06;;;;;;;34.70;15.53;;;;;;;4.27;100.00;103053.00;5236406;28;20033;-70
2022/01/17 04:22:49;;;;;;;26.03;14.90;;;;;;;4.21;100.00;103051.22;5236669;28;20022;-71
2022/01/17 04:25:23;;;;;;;27.43;15.93;;;;;;;4.31;100.00;103062.50;5236372;28;20029;-70
2022/01/17 04:27:55;;;;;;;29.05;13.65;;;;;;;4.31;100.00;103062.50;5236359;28;20112;-70
2022/01/17 04:30:28;;;;;;;27.23;16.00;;;;;;;4.22;100.00;103067.66;5235959;28;20710;-71
2022/01/17 04:32:59;;;;;;;31.87;14.87;;;;;;;4.17;100.00;103059.00;5235579;28;20907;-70
2022/01/17 04:35:32;;;;;;;34.23;14.40;;;;;;;4.28;100.00;103075.47;5218277;28;20051;-70
2022/01/17 04:38:18;;;;;;;26.73;14.83;;;;;;;4.26;100.00;103076.34;5236336;28;20119;-71
2022/01/17 04:41:00;;;;;;;28.93;14.40;;;;;;;4.23;100.00;103079.78;5236184;28;20116;-71
2022/01/17 04:46:10;;;;;;;23.53;14.67;;;;;;;4.09;100.00;103070.22;5236414;28;20041;-71
2022/01/17 04:48:42;;;;;;;29.17;15.30;;;;;;;3.96;100.00;103056.31;5234920;28;20041;-71
2022/01/17 04:51:13;;;;;;;22.57;14.33;;;;;;;4.10;100.00;103066.75;5235752;28;20036;-70
2022/01/17 04:53:59;;;;;;;29.37;15.70;;;;;;;3.97;100.00;103072.75;5235923;28;20073;-70
2022/01/17 04:56:30;;;;;;;28.50;14.97;;;;;;;3.93;100.00;103065.81;5235897;28;20820;-70
2022/01/17 04:59:01;;;;;;;24.87;15.27;;;;;;;3.92;100.00;103054.59;5236036;28;20045;-70
2022/01/17 05:01:33;;;;;;;33.00;16.20;;;;;;;3.80;100.00;103045.06;5233544;28;20144;-70
2022/01/17 05:04:04;;;;;;;22.57;15.00;;;;;;;3.93;100.00;103074.47;5201777;28;20032;-70
2022/01/17 05:06:35;;;;;;;26.53;15.43;;;;;;;3.98;100.00;103085.72;5234965;28;20080;-71
2022/01/17 05:09:06;;;;;;;28.13;14.80;;;;;;;3.99;100.00;103082.28;5235909;28;20492;-71
2022/01/17 05:11:40;;;;;;;28.13;15.83;;;;;;;3.99;100.00;103078.81;5217470;28;20029;-70
2022/01/17 05:14:11;;;;;;;24.03;14.93;;;;;;;3.84;100.00;103085.66;5235750;28;20685;-71
2022/01/17 05:16:54;;;;;;;24.37;15.23;;;;;;;3.78;100.00;103101.19;5216779;28;20037;-70
2022/01/17 05:22:21;;;;;;;26.20;15.47;;;;;;;3.98;100.00;103114.25;5214784;28;20033;-70
2022/01/17 05:24:52;;;;;;;28.50;15.23;;;;;;;3.95;100.00;103108.19;5214993;28;20476;-71
2022/01/17 05:27:24;;;;;;;31.03;16.37;;;;;;;3.85;100.00;103110.75;5214332;28;20036;-71
2022/01/17 05:29:55;;;;;;;28.23;16.43;;;;;;;3.80;100.00;103109.84;5197323;28;20026;-71
2022/01/17 05:32:27;;;;;;;26.17;14.83;;;;;;;3.80;100.00;103096.91;5213074;28;20472;-71
2022/01/17 05:34:58;;;;;;;29.80;17.93;;;;;;;3.90;100.00;103115.06;5214882;28;20366;-71
2022/01/17 05:37:29;;;;;;;30.40;15.47;;;;;;;3.84;100.00;103114.19;5213289;28;20673;-71
2022/01/17 05:40:01;;;;;;;27.10;16.27;;;;;;;3.80;100.00;103117.63;5214322;28;20030;-71
2022/01/17 05:42:32;;;;;;;24.77;16.60;;;;;;;3.85;100.00;103121.13;5212943;28;20022;-70
2022/01/17 05:45:05;;;;;;;25.10;17.63;;;;;;;3.78;100.00;103105.50;5212924;28;20192;-70
2022/01/17 05:47:36;;;;;;;31.10;17.70;;;;;;;3.67;100.00;103102.84;5213359;28;20021;-70
2022/01/17 05:50:08;;;;;;;26.97;16.80;;;;;;;3.87;100.00;103119.38;5214472;28;20033;-70
2022/01/17 05:52:41;;;;;;;36.27;18.67;;;;;;;3.84;100.00;103116.78;5213852;28;20029;-70
2022/01/17 05:55:14;;;;;;;32.10;17.43;;;;;;;3.79;100.00;103121.06;5213158;28;20049;-70
2022/01/17 05:57:46;;;;;;;29.80;17.95;;;;;;;3.82;100.00;103118.47;5214414;28;20037;-71
2022/01/17 06:00:18;;;;;;;36.57;20.43;;;;;;;3.76;100.00;103115.88;5212324;28;20026;-70
2022/01/17 06:02:49;;;;;;;31.77;18.77;;;;;;;3.78;100.00;103123.66;5227238;28;20108;-70
2022/01/17 06:05:20;;;;;;;31.47;18.83;;;;;;;3.76;100.00;103131.41;5234340;28;20021;-70
2022/01/17 06:07:51;;;;;;;34.57;18.70;;;;;;;3.74;100.00;103122.75;5233120;28;20021;-70
2022/01/17 06:10:23;;;;;;;32.60;19.53;;;;;;;3.70;100.00;103121.03;5235746;28;20060;-69
2022/01/17 06:12:55;;;;;;;39.30;19.50;;;;;;;3.73;100.00;103121.03;5237608;28;20542;-70
2022/01/17 06:15:27;;;;;;;33.53;20.23;;;;;;;3.68;100.00;103128.81;5233538;28;20025;-70
2022/01/17 06:17:58;;;;;;;39.00;19.87;;;;;;;3.54;100.00;103131.31;5233433;28;20082;-69
2022/01/17 06:20:29;;;;;;;31.80;20.37;;;;;;;3.70;100.00;103131.41;5234008;28;20040;-69
2022/01/17 06:23:01;;;;;;;33.83;19.93;;;;;;;3.56;100.00;103114.00;5238421;28;20029;-69
2022/01/17 06:25:32;;;;;;;33.50;20.30;;;;;;;3.61;100.00;103127.88;5235948;28;20040;-69
2022/01/17 06:28:04;;;;;;;32.30;20.83;;;;;;;3.53;100.00;103131.25;5234425;28;20139;-69
2022/01/17 06:30:35;;;;;;;37.43;21.30;;;;;;;3.60;100.00;103133.91;5232975;28;20025;-69
2022/01/17 06:33:06;;;;;;;31.73;20.13;;;;;;;3.51;100.00;103139.03;5214830;28;20037;-69
2022/01/17 06:35:38;;;;;;;34.37;21.80;;;;;;;3.52;100.00;103127.81;5230794;28;20044;-71
2022/01/17 06:38:09;;;;;;;34.57;22.17;;;;;;;3.45;100.00;103132.09;5232639;28;20036;-70
2022/01/17 06:40:40;;;;;;;34.87;22.20;;;;;;;3.42;100.00;103137.22;5233363;28;20033;-70
2022/01/17 06:43:12;;;;;;;32.40;22.33;;;;;;;3.53;100.00;103147.69;5233368;28;20033;-70
2022/01/17 06:45:45;;;;;;;31.97;22.53;;;;;;;3.34;100.00;103147.56;5233406;28;20056;-70
2022/01/17 06:48:16;;;;;;;36.33;23.00;;;;;;;3.40;100.00;103154.50;5232655;28;20423;-70
2022/01/17 06:50:48;;;;;;;41.13;25.57;;;;;;;3.40;100.00;103144.16;5234050;28;20040;-70
2022/01/17 06:53:19;;;;;;;36.17;24.03;;;;;;;3.53;100.00;103152.00;5214903;28;20074;-70
2022/01/17 06:55:50;;;;;;;35.57;23.90;;;;;;;3.51;100.00;103152.84;5212430;28;20018;-70
2022/01/17 06:58:22;;;;;;;39.13;24.83;;;;;;;3.51;100.00;103171.00;5212794;28;20041;-70
2022/01/17 07:00:54;;;;;;;36.77;23.93;;;;;;;3.56;100.00;103181.38;5233812;28;20029;-70
2022/01/17 07:03:25;;;;;;;38.53;24.77;;;;;;;3.43;100.00;103176.97;5232702;28;20491;-70
2022/01/17 07:05:57;;;;;;;37.47;24.37;;;;;;;3.54;100.00;103188.31;5232154;28;20034;-72
2022/01/17 07:08:29;;;;;;;38.60;24.23;;;;;;;3.57;100.00;103203.88;5234995;28;20029;-70
2022/01/17 07:11:00;;;;;;;41.17;24.73;;;;;;;3.51;100.00;103217.63;5236322;28;20025;-72
2022/01/17 07:13:32;;;;;;;37.00;24.97;;;;;;;3.50;100.00;103191.72;5223348;28;20017;-72
2022/01/17 07:16:04;;;;;;;35.07;23.60;;;;;;;3.45;100.00;103178.72;5232706;28;20112;-72
2022/01/17 07:18:35;;;;;;;41.50;25.70;;;;;;;3.43;100.00;103166.59;5232229;28;20021;-73
2022/01/17 07:21:07;;;;;;;34.40;22.60;;;;;;;3.51;100.00;103168.41;5233427;28;20033;-72
2022/01/17 07:23:38;;;;;;;41.07;25.97;;;;;;;3.34;100.00;103146.66;5231511;28;20026;-71
2022/01/17 07:26:09;;;;;;;36.10;23.03;;;;;;;3.41;100.00;103145.88;5232069;28;20464;-72
2022/01/17 07:28:40;;;;;;;35.30;23.70;;;;;;;3.43;100.00;103138.09;5232477;28;20495;-72
2022/01/17 07:31:12;;;;;;;37.53;24.33;;;;;;;3.41;100.00;103138.09;5231952;28;20060;-71
2022/01/17 07:33:43;;;;;;;40.67;22.53;;;;;;;3.35;100.00;103153.59;5233157;28;20032;-72
2022/01/17 07:36:19;;;;;;;42.97;25.13;;;;;;;3.32;100.00;103159.63;5212910;28;20028;-72
2022/01/17 07:38:51;;;;;;;32.57;22.30;;;;;;;3.35;100.00;103163.97;5211538;28;20033;-72
2022/01/17 07:41:22;;;;;;;32.53;21.17;;;;;;;3.42;100.00;103172.66;5228958;28;20400;-72
2022/01/17 07:43:53;;;;;;;39.10;23.17;;;;;;;3.45;100.00;103185.63;5228197;28;20464;-72
2022/01/17 07:46:31;;;;;;;38.47;24.20;;;;;;;3.42;100.00;103168.31;5197619;28;20120;-72
2022/01/17 07:49:10;;;;;;;43.30;24.27;;;;;;;3.35;100.00;103167.41;5229091;28;20238;-72
2022/01/17 07:51:44;;;;;;;41.40;23.80;;;;;;;3.35;100.00;103185.53;5209560;28;20129;-71
2022/01/17 07:54:17;;;;;;;38.05;24.70;;;;;;;3.40;100.00;103190.78;5227933;28;20061;-72
2022/01/17 07:56:49;;;;;;;33.70;22.17;;;;;;;3.43;100.00;103201.16;5229368;28;20033;-72
2022/01/17 07:59:21;;;;;;;38.67;25.30;;;;;;;3.39;100.00;103200.25;5234095;28;20021;-75
2022/01/17 08:01:52;;;;;;;40.00;24.57;;;;;;;3.44;100.00;103202.03;5213955;28;20124;-72
2022/01/17 08:04:23;;;;;;;40.80;24.73;;;;;;;3.54;100.00;103218.53;5229771;28;20068;-72
2022/01/17 08:06:55;;;;;;;40.10;25.10;;;;;;;3.53;100.00;103219.34;5217793;28;20021;-71
2022/01/17 08:09:30;;;;;;;39.87;24.63;;;;;;;3.44;100.00;103221.03;5227983;28;20703;-72
2022/01/17 08:12:05;;;;;;;35.27;23.87;;;;;;;3.44;100.00;103221.03;5210389;28;20030;-72
2022/01/17 08:14:36;;;;;;;39.87;25.70;;;;;;;3.44;100.00;103230.53;5210376;28;20048;-72
2022/01/17 08:17:08;;;;;;;42.97;24.17;;;;;;;3.52;100.00;103234.06;5229403;28;20096;-73
2022/01/17 08:19:39;;;;;;;40.83;24.67;;;;;;;3.57;100.00;103234.09;5213193;28;20041;-73
2022/01/17 08:22:11;;;;;;;49.60;26.30;;;;;;;3.54;100.00;103216.81;5231370;28;20088;-73
2022/01/17 08:24:42;;;;;;;47.30;25.23;;;;;;;3.61;100.00;103222.91;5228176;28;20029;-75
2022/01/17 08:27:13;;;;;;;36.13;23.70;;;;;;;3.68;100.00;103226.41;5228420;28;20044;-73
2022/01/17 08:29:44;;;;;;;35.40;24.27;;;;;;;3.69;100.00;103217.75;5236557;28;20021;-74
2022/01/17 08:32:15;;;;;;;34.60;24.90;;;;;;;3.76;100.00;103219.56;5232189;28;20025;-73
2022/01/17 08:34:47;;;;;;;31.53;23.70;;;;;;;3.77;100.00;103221.28;5215729;28;20025;-74
2022/01/17 08:37:18;;;;;;;37.00;23.60;;;;;;;3.93;100.00;103235.22;5232769;28;20029;-73
2022/01/17 08:39:49;;;;;;;36.20;23.97;;;;;;;3.91;100.00;103234.34;5216686;28;20021;-74
2022/01/17 08:42:20;;;;;;;39.00;24.93;;;;;;;3.93;100.00;103226.56;5233242;28;20105;-73
2022/01/17 08:44:54;;;;;;;38.37;24.23;;;;;;;3.97;100.00;103226.63;5230105;28;20512;-74
2022/01/17 08:47:26;;;;;;;35.75;23.88;;;;;;;4.03;100.00;103207.66;5217063;28;20021;-74
2022/01/17 08:49:57;;;;;;;43.30;25.57;;;;;;;4.06;100.00;103207.66;5233531;28;20014;-74
2022/01/17 08:52:28;;;;;;;38.90;24.53;;;;;;;4.13;100.00;103210.28;5232557;28;20386;-73
2022/01/17 08:54:59;;;;;;;36.23;23.27;;;;;;;4.16;100.00;103216.34;5213105;28;20045;-74
2022/01/17 08:57:31;;;;;;;38.73;24.00;;;;;;;4.15;100.00;103211.16;5235131;28;20032;-74
2022/01/17 09:00:09;;;;;;;37.20;24.73;;;;;;;4.20;100.00;103230.22;5219523;28;20018;-74
2022/01/17 09:02:40;;;;;;;35.30;23.37;;;;;;;4.21;100.00;103231.94;5216816;28;20506;-74
2022/01/17 09:05:11;;;;;;;42.13;22.90;;;;;;;4.18;100.00;103219.84;5225794;28;20025;-74
2022/01/17 09:07:43;;;;;;;38.13;22.07;;;;;;;4.20;100.00;103227.63;5217852;28;20674;-74
2022/01/17 09:10:16;;;;;;;37.93;21.70;;;;;;;4.28;100.00;103233.72;5231362;28;20024;-73
2022/01/17 09:12:47;;;;;;;32.73;22.17;;;;;;;4.30;100.00;103238.91;5219035;28;20108;-74
2022/01/17 09:15:19;;;;;;;33.87;19.97;;;;;;;4.33;100.00;103237.19;5227816;28;20433;-74
2022/01/17 09:17:50;;;;;;;34.10;19.73;;;;;;;4.38;100.00;103238.97;5231680;28;20033;-73
2022/01/17 09:20:22;;;;;;;33.53;19.40;;;;;;;4.35;100.00;103251.06;5217476;28;20055;-73
2022/01/17 09:22:53;;;;;;;38.93;20.30;;;;;;;4.40;100.00;103268.38;5232545;28;20061;-74
2022/01/17 09:25:24;;;;;;;34.30;18.50;;;;;;;4.43;100.00;103263.22;5226851;28;20033;-74
2022/01/17 09:27:55;;;;;;;28.73;18.67;;;;;;;4.42;100.00;103271.84;5229089;28;20040;-73
2022/01/17 09:30:27;;;;;;;39.83;18.77;;;;;;;4.46;100.00;103276.19;5202108;28;20100;-73
2022/01/17 09:32:58;;;;;;;32.33;16.60;;;;;;;4.47;100.00;103259.75;5231236;28;20025;-72
2022/01/17 09:35:31;;;;;;;31.67;16.43;;;;;;;4.68;100.00;103278.88;5208796;28;20377;-72
2022/01/17 09:38:03;;;;;;;34.77;15.97;;;;;;;4.75;100.00;103275.44;5212371;28;20032;-73
2022/01/17 09:40:35;;;;;;;30.50;15.00;;;;;;;4.80;100.00;103278.94;5231766;28;20032;-74
2022/01/17 09:43:06;;;;;;;27.60;13.60;;;;;;;4.78;100.00;103265.06;5231736;28;20037;-74
2022/01/17 09:45:38;;;;;;;33.10;15.67;;;;;;;4.69;100.00;103265.06;5222233;28;20481;-74
2022/01/17 09:48:14;;;;;;;35.27;14.43;;;;;;;4.76;100.00;103279.81;5224657;28;20021;-74
2022/01/17 09:50:58;;;;;;;27.10;13.40;;;;;;;4.83;100.00;103291.94;5228562;28;20424;-74
2022/01/17 09:53:38;;;;;;;31.53;14.23;;;;;;;4.89;100.00;103298.00;5230295;28;20037;-74
2022/01/17 09:56:10;;;;;;;26.77;13.33;;;;;;;4.94;100.00;103302.38;5220198;28;20029;-74
2022/01/17 09:58:42;;;;;;;27.57;13.27;;;;;;;4.93;100.00;103302.38;5234920;28;20032;-74
2022/01/17 10:01:13;;;;;;;33.80;12.43;;;;;;;4.97;100.00;103317.09;5230152;28;20392;-74
2022/01/17 10:03:46;;;;;;;22.33;11.70;;;;;;;4.94;100.00;103319.69;5232379;28;20522;-74
2022/01/17 10:06:17;;;;;;;32.90;12.83;;;;;;;4.92;100.00;103298.88;5201892;28;20146;-74
2022/01/17 10:09:08;;;;;;;31.57;11.07;;;;;;;5.04;100.00;103318.88;5229149;28;20044;-74
2022/01/17 10:12:04;;;;;;;33.33;13.00;;;;;;;5.05;100.00;103314.53;5234653;28;20037;-73
2022/01/17 10:14:37;;;;;;;31.27;11.10;;;;;;;5.06;100.00;103309.31;5228789;28;20029;-74
2022/01/17 10:17:12;;;;;;;28.67;12.93;;;;;;;5.03;100.00;103322.31;5225431;28;20021;-73
2022/01/17 10:19:44;;;;;;;;;;;;;;;5.19;100.00;103319.75;5215958;28;20863;-73
2022/01/17 10:22:28;;;;;;;31.77;10.40;;;;;;;5.15;100.00;103310.25;5215504;28;19904;-73
2022/01/17 10:36:48;;;;;;;29.70;9.33;;;;;;;5.24;100.00;103331.03;5220562;28;20025;-74
2022/01/17 10:39:20;;;;;;;25.75;9.48;;;;;;;5.22;100.00;103332.75;5231395;28;20021;-73
2022/01/17 10:41:51;;;;;;;29.50;9.90;;;;;;;5.26;100.00;103326.72;5213487;28;20032;-73
2022/01/17 10:44:36;;;;;;;32.47;10.27;;;;;;;5.21;100.00;103325.84;5225909;28;20056;-73
2022/01/17 10:47:25;;;;;;;20.87;9.47;;;;;;;5.29;100.00;103326.72;5224255;28;20388;-73
2022/01/17 10:50:00;;;;;;;28.70;9.47;;;;;;;5.28;100.00;103332.78;5216759;28;20037;-73
2022/01/17 10:52:37;;;;;;;30.50;8.60;;;;;;;5.32;100.00;103336.28;5230738;28;20025;-73
2022/01/17 10:55:24;;;;;;;29.30;8.97;;;;;;;5.36;100.00;103347.53;5203190;28;20046;-73
2022/01/17 10:58:02;;;;;;;30.23;9.10;;;;;;;5.40;100.00;103354.47;5214093;28;20120;-73
2022/01/17 11:00:36;;;;;;;28.13;10.00;;;;;;;5.42;100.00;103355.34;5214882;28;20044;-73
2022/01/17 11:03:11;;;;;;;24.25;8.30;;;;;;;5.21;100.00;103331.03;5231088;28;20026;-74
2022/01/17 11:05:45;;;;;;;32.63;9.07;;;;;;;5.44;100.00;103356.22;5217925;28;21643;-73
2022/01/17 11:08:19;;;;;;;25.35;7.63;;;;;;;5.50;100.00;103353.63;5229192;28;20037;-79
2022/01/17 11:10:53;;;;;;;26.10;8.57;;;;;;;5.51;100.00;103370.97;5232592;28;20061;-74
2022/01/17 11:13:29;;;;;;;29.03;8.70;;;;;;;5.59;100.00;103362.31;5232461;28;20104;-75
2022/01/17 11:16:04;;;;;;;31.23;10.37;;;;;;;5.55;100.00;103367.50;5211594;28;20091;-74
2022/01/17 11:18:36;;;;;;;25.73;8.13;;;;;;;5.60;100.00;103357.13;5235276;28;20025;-74
2022/01/17 11:21:14;;;;;;;23.60;7.67;;;;;;;5.57;100.00;103360.59;5232120;28;20495;-75
2022/01/17 11:23:48;;;;;;;28.10;7.80;;;;;;;5.65;100.00;103362.34;5231701;28;20582;-75
2022/01/17 11:26:20;;;;;;;29.13;8.02;;;;;;;5.65;100.00;103349.34;5228376;28;20033;-75
2022/01/17 11:28:54;;;;;;;35.73;9.00;;;;;;;5.71;100.00;103348.47;5231142;28;20017;-76
2022/01/17 11:31:26;;;;;;;31.90;9.38;;;;;;;5.71;100.00;103344.13;5230634;28;20100;-75
2022/01/17 11:33:57;;;;;;;31.87;8.57;;;;;;;5.74;100.00;103336.31;5231805;28;20104;-75
2022/01/17 11:36:29;;;;;;;32.90;8.30;;;;;;;5.69;100.00;103306.84;5228411;28;20383;-74
2022/01/17 11:39:00;;;;;;;34.57;9.40;;;;;;;5.70;100.00;103300.81;5235646;28;20388;-74
2022/01/17 11:41:36;;;;;;;24.77;6.93;;;;;;;5.85;100.00;103318.13;5235545;28;20025;-73
2022/01/17 11:44:08;;;;;;;27.50;7.47;;;;;;;5.84;100.00;103332.03;5235775;28;20380;-74
2022/01/17 11:46:52;;;;;;;23.70;7.93;;;;;;;5.87;100.00;103331.13;5213353;28;20033;-74
2022/01/17 11:49:31;;;;;;;31.90;8.05;;;;;;;5.95;100.00;103333.75;5224424;28;20460;-74
2022/01/17 11:52:07;;;;;;;33.93;7.27;;;;;;;5.89;100.00;103356.28;5218771;28;20029;-73
2022/01/17 11:54:44;;;;;;;29.30;7.30;;;;;;;5.98;100.00;103364.97;5231192;28;20122;-74
2022/01/17 11:57:21;;;;;;;25.60;6.10;;;;;;;6.07;100.00;103374.53;5221641;28;20116;-74
2022/01/17 11:59:52;;;;;;;31.23;7.73;;;;;;;6.05;100.00;103361.53;5222709;28;20025;-73
2022/01/17 12:02:33;;;;;;;27.20;8.00;;;;;;;6.07;100.00;103361.53;5232915;28;20043;-74
2022/01/17 12:05:07;;;;;;;35.37;9.17;;;;;;;6.12;100.00;103371.06;5217930;28;20037;-73
2022/01/17 12:07:43;;;;;;;34.10;6.15;;;;;;;6.16;100.00;103367.59;5234482;28;20495;-73
2022/01/17 12:10:17;;;;;;;35.07;9.30;;;;;;;6.19;100.00;103364.13;5226003;28;20022;-73
2022/01/17 12:13:11;;;;;;;27.67;8.27;;;;;;;6.31;100.00;103372.78;5231717;28;20029;-75